Time;durP1;ratioP1;P1;durP2;ratioP2;P2;SDS_P1;SDS_P2;PMS_P1;PMS_P2;Temp;Humidity;BMP_temperature;BMP_pressure;BME280_temperature;BME280_humidity;BME280_pressure;Samples;Min_cycle;Max_cycle;Signal;HPM_P1;HPM_P2
2022/08/12 00:44:37;;;;;;;;;;;;;;;18.87;40.16;96617.50;5043222;28;19963;-73
2022/08/12 00:47:03;;;;;;;;;;;;;;;18.85;40.17;96612.44;5039862;28;19965;-73
2022/08/12 00:49:29;;;;;;;;;;;;;;;18.85;39.78;96617.75;5050104;28;19962;-73
2022/08/12 00:52:06;;;;;;;;;;;;;;;18.84;39.65;96613.53;5043504;28;19952;-73
2022/08/12 00:54:33;;;;;;;;;;;;;;;18.83;39.72;96611.91;5041613;28;19952;-73
2022/08/12 00:57:01;;;;;;;;;;;;;;;18.82;39.78;96612.19;5045800;28;19973;-73
2022/08/12 00:59:27;;;;;;;;;;;;;;;18.81;39.39;96613.25;5045038;28;19956;-73
2022/08/12 01:01:53;;;;;;;;;;;;;;;18.81;39.62;96619.34;5037711;28;20311;-73
2022/08/12 01:12:41;;;;;;;;;;;;;;;18.81;39.45;96618.56;5032063;28;19954;-73
2022/08/12 01:15:08;;;;;;;;;;;;;;;18.81;39.32;96618.56;5044749;28;19957;-73
2022/08/12 01:17:34;;;;;;;;;;;;;;;18.81;39.81;96618.56;5047255;28;19960;-73
2022/08/12 01:20:03;;;;;;;;;;;;;;;18.82;39.93;96620.19;5045203;28;19964;-73
2022/08/12 01:22:56;;;;;;;;;;;;;;;18.82;39.54;96610.34;5062461;28;20320;-73
2022/08/12 01:25:24;;;;;;;;;;;;;;;18.80;39.88;96619.66;5029047;28;20327;-73
2022/08/12 01:27:51;;;;;;;;;;;;;;;18.78;40.00;96619.91;5042014;28;19961;-73
2022/08/12 01:30:18;;;;;;;;;;;;;;;18.77;40.38;96620.94;5035116;28;20322;-73
2022/08/12 01:32:46;;;;;;;;;;;;;;;18.75;40.41;96633.69;5047144;28;19973;-73
2022/08/12 01:35:13;;;;;;;;;;;;;;;18.73;40.29;96630.50;5046946;28;19963;-74
2022/08/12 01:37:42;;;;;;;;;;;;;;;18.71;40.47;96629.16;5045090;28;19979;-74
2022/08/12 01:40:09;;;;;;;;;;;;;;;18.70;40.32;96623.06;5036753;28;20411;-73
2022/08/12 01:42:57;;;;;;;;;;;;;;;18.68;40.81;96630.50;5044706;28;20434;-72
2022/08/12 01:45:24;;;;;;;;;;;;;;;18.62;40.75;96632.34;5036651;28;19967;-73
2022/08/12 01:47:59;;;;;;;;;;;;;;;18.57;41.20;96626.25;5047759;28;19955;-73
2022/08/12 01:50:44;;;;;;;;;;;;;;;18.50;41.08;96628.34;5040377;28;19963;-73
2022/08/12 01:53:11;;;;;;;;;;;;;;;18.42;41.28;96625.16;5041213;28;19957;-73
2022/08/12 01:55:41;;;;;;;;;;;;;;;18.36;41.27;96617.47;5044351;28;20304;-73
2022/08/12 01:58:17;;;;;;;;;;;;;;;18.30;41.51;96616.63;5042381;28;19970;-73
2022/08/12 02:00:50;;;;;;;;;;;;;;;18.25;41.86;96614.00;5042100;28;19966;-73
2022/08/12 02:03:22;;;;;;;;;;;;;;;18.18;41.98;96616.09;5043919;28;20317;-73
2022/08/12 02:11:28;;;;;;;;;;;;;;;17.94;42.05;96608.59;5045047;28;20331;-73
2022/08/12 02:13:54;;;;;;;;;;;;;;;17.90;42.63;96612.81;5041387;28;19961;-73
2022/08/12 02:16:45;;;;;;;;;;;;;;;17.85;43.14;96608.31;5042026;28;20419;-73
2022/08/12 02:19:29;;;;;;;;;;;;;;;17.82;42.59;96603.50;5047393;28;19950;-73
2022/08/12 02:21:58;;;;;;;;;;;;;;;17.78;42.82;96593.66;5044059;28;19969;-73
2022/08/12 02:24:25;;;;;;;;;;;;;;;17.75;42.84;96594.19;5039641;28;19965;-73
2022/08/12 02:26:53;;;;;;;;;;;;;;;17.70;43.50;96600.28;5049098;28;19946;-74
2022/08/12 02:29:19;;;;;;;;;;;;;;;17.64;42.47;96591.47;5045035;28;19976;-73
2022/08/12 02:31:45;;;;;;;;;;;;;;;17.58;43.36;96592.50;5036087;28;19956;-73
2022/08/12 02:34:11;;;;;;;;;;;;;;;17.52;43.24;96590.91;5046449;28;19964;-73
2022/08/12 02:36:39;;;;;;;;;;;;;;;17.48;43.74;96599.63;5048747;28;19958;-73
2022/08/12 02:39:10;;;;;;;;;;;;;;;17.41;43.63;96595.34;5048790;28;20301;-73
2022/08/12 02:41:40;;;;;;;;;;;;;;;17.38;43.91;96595.84;5042652;28;20434;-72
2022/08/12 02:44:07;;;;;;;;;;;;;;;17.35;43.72;96592.94;5044812;28;19952;-73
2022/08/12 02:46:34;;;;;;;;;;;;;;;17.32;44.25;96596.88;5040106;28;20406;-73
2022/08/12 02:49:04;;;;;;;;;;;;;;;17.29;44.50;96593.97;5038029;28;19960;-73
2022/08/12 02:51:31;;;;;;;;;;;;;;;17.24;44.39;96592.09;5048079;28;19958;-73
2022/08/12 02:53:58;;;;;;;;;;;;;;;17.20;44.31;96589.16;5049228;28;19949;-73
2022/08/12 02:56:27;;;;;;;;;;;;;;;17.18;44.46;96582.50;5046968;28;19963;-73
2022/08/12 02:58:54;;;;;;;;;;;;;;;17.19;45.25;96584.88;5048992;28;19976;-73
2022/08/12 03:01:22;;;;;;;;;;;;;;;17.19;44.84;96587.53;5044675;28;20312;-73
2022/08/12 03:03:49;;;;;;;;;;;;;;;17.20;45.14;96585.72;5050047;28;19953;-73
2022/08/12 03:06:20;;;;;;;;;;;;;;;17.19;45.16;96586.75;5048907;28;19964;-73
2022/08/12 03:08:46;;;;;;;;;;;;;;;17.14;44.96;96592.81;5046329;28;19954;-73
2022/08/12 03:11:15;;;;;;;;;;;;;;;17.12;45.21;96589.63;5046217;28;19969;-73
2022/08/12 03:13:50;;;;;;;;;;;;;;;17.11;45.71;96601.25;5047926;28;19956;-73
2022/08/12 03:16:16;;;;;;;;;;;;;;;17.08;45.23;96590.41;5052805;28;19950;-74
2022/08/12 03:18:43;;;;;;;;;;;;;;;17.07;45.67;96596.75;5041903;28;19953;-73
2022/08/12 03:21:12;;;;;;;;;;;;;;;17.05;45.71;96602.31;5044534;28;19973;-73
2022/08/12 03:23:39;;;;;;;;;;;;;;;17.03;45.89;96594.63;5051483;28;19953;-73
2022/08/12 03:26:06;;;;;;;;;;;;;;;17.03;45.73;96593.81;5048523;28;20434;-73
2022/08/12 03:31:19;;;;;;;;;;;;;;;16.99;45.56;96596.16;5044465;28;19959;-73
2022/08/12 03:33:47;;;;;;;;;;;;;;;16.97;45.75;96597.50;5046740;28;19969;-73
2022/08/12 03:36:17;;;;;;;;;;;;;;;16.95;45.70;96602.25;5045819;28;19965;-73
2022/08/12 03:38:49;;;;;;;;;;;;;;;16.89;45.99;96592.66;5046240;28;20412;-73
2022/08/12 03:41:36;;;;;;;;;;;;;;;16.82;47.28;96593.66;5048285;28;19971;-73
2022/08/12 04:00:45;;;;;;;;;;;;;;;16.51;48.12;96594.47;5045141;28;19972;-73
2022/08/12 04:05:55;;;;;;;;;;;;;;;16.44;47.69;96597.28;5046981;28;19956;-73
2022/08/12 04:08:25;;;;;;;;;;;;;;;16.43;47.81;96599.13;5040489;28;20376;-73
2022/08/12 04:13:36;;;;;;;;;;;;;;;16.42;48.17;96607.31;5044155;28;20333;-73
2022/08/12 04:16:06;;;;;;;;;;;;;;;16.42;47.99;96602.03;5040783;28;19954;-73
2022/08/12 04:18:33;;;;;;;;;;;;;;;16.42;47.60;96613.44;5045992;28;20416;-73
2022/08/12 04:21:01;;;;;;;;;;;;;;;16.40;48.01;96612.88;5047786;28;19973;-73
2022/08/12 04:23:27;;;;;;;;;;;;;;;16.38;48.04;96612.34;5050857;28;20428;-73
2022/08/12 04:25:53;;;;;;;;;;;;;;;16.38;48.27;96617.63;5040446;28;19955;-73
2022/08/12 04:28:26;;;;;;;;;;;;;;;16.39;48.17;96613.94;5045108;28;20056;-73
2022/08/12 04:30:52;;;;;;;;;;;;;;;16.39;48.73;96610.47;5046429;28;19957;-73
2022/08/12 04:33:18;;;;;;;;;;;;;;;16.38;48.51;96611.56;5050009;28;19973;-73
2022/08/12 04:35:46;;;;;;;;;;;;;;;16.37;48.79;96612.59;5041523;28;20342;-73
2022/08/12 04:38:12;;;;;;;;;;;;;;;16.36;49.06;96611.78;5045231;28;19963;-73
2022/08/12 04:40:38;;;;;;;;;;;;;;;16.36;48.58;96611.78;5044247;28;19968;-73
2022/08/12 04:43:04;;;;;;;;;;;;;;;16.36;49.00;96609.16;5048914;28;19970;-73
2022/08/12 04:45:31;;;;;;;;;;;;;;;16.35;48.85;96609.38;5046076;28;20379;-73
2022/08/12 04:47:57;;;;;;;;;;;;;;;16.37;49.81;96613.38;5041521;28;19960;-73
2022/08/12 04:50:24;;;;;;;;;;;;;;;16.41;49.21;96608.38;5047486;28;19958;-73
2022/08/12 04:52:50;;;;;;;;;;;;;;;16.48;48.91;96600.25;5047684;28;20438;-73
2022/08/12 04:55:17;;;;;;;;;;;;;;;16.57;49.07;96602.19;5045162;28;19990;-73
2022/08/12 04:57:43;;;;;;;;;;;;;;;16.70;49.24;96605.47;5047627;28;19972;-74
2022/08/12 05:00:11;;;;;;;;;;;;;;;16.86;48.46;96590.50;5041764;28;19965;-73
2022/08/12 05:02:37;;;;;;;;;;;;;;;17.03;48.69;96588.53;5045167;28;19975;-73
2022/08/12 05:05:04;;;;;;;;;;;;;;;17.16;47.54;96585.41;5042964;28;20012;-73
2022/08/12 05:07:30;;;;;;;;;;;;;;;17.31;47.84;96578.59;5049464;28;19958;-73
2022/08/12 05:09:56;;;;;;;;;;;;;;;17.46;48.14;96583.97;5046958;28;19959;-73
2022/08/12 05:12:22;;;;;;;;;;;;;;;17.60;47.15;96571.84;5042577;28;19958;-73
2022/08/12 05:14:49;;;;;;;;;;;;;;;17.75;47.37;96571.09;5040969;28;19960;-73
2022/08/12 05:17:15;;;;;;;;;;;;;;;17.94;46.71;96575.97;5047471;28;19967;-73
2022/08/12 05:19:41;;;;;;;;;;;;;;;18.10;46.72;96574.13;5044203;28;19982;-73
2022/08/12 05:22:07;;;;;;;;;;;;;;;18.35;46.55;96587.47;5041262;28;19976;-73
2022/08/12 05:24:33;;;;;;;;;;;;;;;18.65;46.08;96584.00;5041649;28;19967;-73
2022/08/12 05:26:59;;;;;;;;;;;;;;;18.97;45.11;96584.81;5042920;28;19963;-73
2022/08/12 05:29:28;;;;;;;;;;;;;;;19.31;44.61;96587.66;5044977;28;20382;-73
2022/08/12 05:31:55;;;;;;;;;;;;;;;19.70;44.10;96583.53;5047589;28;19982;-73
2022/08/12 05:34:21;;;;;;;;;;;;;;;20.10;43.40;96581.78;5046217;28;19966;-73
2022/08/12 05:36:47;;;;;;;;;;;;;;;20.52;42.90;96589.22;5045016;28;19963;-73
2022/08/12 05:39:13;;;;;;;;;;;;;;;20.90;41.94;96581.47;5040923;28;19960;-73
2022/08/12 05:41:40;;;;;;;;;;;;;;;21.21;40.87;96581.19;5040931;28;19974;-73
2022/08/12 05:44:08;;;;;;;;;;;;;;;21.53;40.15;96583.25;5049069;28;19959;-73
2022/08/12 05:46:35;;;;;;;;;;;;;;;21.82;39.65;96574.38;5047099;28;19956;-74
2022/08/12 05:49:01;;;;;;;;;;;;;;;22.14;39.57;96580.91;5040847;28;19956;-73
2022/08/12 05:51:28;;;;;;;;;;;;;;;22.37;39.24;96579.25;5040476;28;19963;-74
2022/08/12 05:53:54;;;;;;;;;;;;;;;22.52;39.01;96579.00;5033667;28;19965;-73
2022/08/12 05:56:27;;;;;;;;;;;;;;;22.66;38.87;96587.88;5040137;28;19960;-74
2022/08/12 05:58:54;;;;;;;;;;;;;;;22.74;38.38;96593.63;5044198;28;20370;-73
2022/08/12 06:01:21;;;;;;;;;;;;;;;22.81;38.33;96588.72;5048895;28;19985;-74
2022/08/12 06:03:48;;;;;;;;;;;;;;;22.87;38.41;96591.00;5043063;28;20362;-73
2022/08/12 06:06:17;;;;;;;;;;;;;;;22.93;38.19;96586.38;5041692;28;20380;-74
2022/08/12 06:08:47;;;;;;;;;;;;;;;22.98;37.92;96590.84;5041657;28;19958;-73
2022/08/12 06:11:14;;;;;;;;;;;;;;;23.08;37.83;96593.38;5044904;28;19958;-74
2022/08/12 06:13:42;;;;;;;;;;;;;;;23.16;37.34;96583.84;5045986;28;20323;-73
2022/08/12 06:16:08;;;;;;;;;;;;;;;23.23;37.19;96587.72;5038005;28;20361;-74
2022/08/12 06:18:38;;;;;;;;;;;;;;;23.33;37.33;96581.41;5044218;28;19953;-74
2022/08/12 06:21:06;;;;;;;;;;;;;;;23.40;36.96;96589.03;5050254;28;19964;-74
2022/08/12 06:23:32;;;;;;;;;;;;;;;23.39;37.27;96584.75;5039738;28;19955;-74
2022/08/12 06:25:58;;;;;;;;;;;;;;;23.43;37.11;96588.44;5043197;28;19960;-74
2022/08/12 06:28:24;;;;;;;;;;;;;;;23.48;36.64;96586.47;5039518;28;19982;-73
2022/08/12 06:30:51;;;;;;;;;;;;;;;23.59;36.94;96588.94;5046939;28;19970;-74
2022/08/12 06:33:17;;;;;;;;;;;;;;;23.76;36.88;96585.66;5047489;28;19965;-74
2022/08/12 06:35:44;;;;;;;;;;;;;;;23.89;36.32;96591.00;5043850;28;19967;-73
2022/08/12 06:38:29;;;;;;;;;;;;;;;23.99;36.17;96589.22;5037683;28;19956;-72
2022/08/12 06:43:42;;;;;;;;;;;;;;;24.19;36.48;96588.78;5046498;28;19959;-73
2022/08/12 06:46:09;;;;;;;;;;;;;;;24.23;36.12;96579.06;5044363;28;19958;-73
2022/08/12 06:48:36;;;;;;;;;;;;;;;24.34;35.90;96584.16;5038574;28;19952;-73
2022/08/12 06:51:02;;;;;;;;;;;;;;;24.36;35.59;96580.09;5043371;28;20318;-73
2022/08/12 06:53:31;;;;;;;;;;;;;;;24.35;35.23;96577.72;5048487;28;19954;-72
2022/08/12 06:55:59;;;;;;;;;;;;;;;24.27;35.61;96585.38;5044373;28;19957;-74
2022/08/12 06:58:28;;;;;;;;;;;;;;;24.14;34.86;96580.84;5025395;28;19966;-73
2022/08/12 07:00:56;;;;;;;;;;;;;;;24.02;35.93;96589.44;5042304;28;19969;-73
2022/08/12 07:03:28;;;;;;;;;;;;;;;24.08;35.54;96587.41;5047398;28;19969;-74
2022/08/12 07:05:55;;;;;;;;;;;;;;;23.99;35.24;96586.53;5047178;28;20328;-74
2022/08/12 07:08:26;;;;;;;;;;;;;;;23.89;36.01;96587.53;5041902;28;19952;-73
2022/08/12 07:10:57;;;;;;;;;;;;;;;23.87;35.29;96579.03;5036235;28;19965;-73
2022/08/12 07:13:24;;;;;;;;;;;;;;;23.84;35.83;96591.13;5045647;28;19965;-73
2022/08/12 07:15:54;;;;;;;;;;;;;;;23.71;35.82;96583.88;5045043;28;19951;-72
2022/08/12 07:18:20;;;;;;;;;;;;;;;23.62;36.24;96591.00;5046760;28;20313;-72
2022/08/12 07:20:47;;;;;;;;;;;;;;;23.75;36.37;96592.91;5041470;28;19963;-73
2022/08/12 07:23:13;;;;;;;;;;;;;;;23.89;35.86;96582.19;5050260;28;20430;-72
2022/08/12 07:25:39;;;;;;;;;;;;;;;24.13;36.09;96589.19;5047739;28;19949;-73
2022/08/12 07:28:09;;;;;;;;;;;;;;;24.27;35.04;96579.22;5046579;28;20280;-73
2022/08/12 07:30:37;;;;;;;;;;;;;;;24.37;34.59;96583.56;5052405;28;19961;-73
2022/08/12 07:33:04;;;;;;;;;;;;;;;24.21;34.41;96591.97;5042449;28;19954;-72
2022/08/12 07:35:31;;;;;;;;;;;;;;;24.26;35.27;96588.38;5041685;28;19961;-73
2022/08/12 07:37:58;;;;;;;;;;;;;;;24.40;35.52;96590.97;5051204;28;19962;-73
2022/08/12 07:40:25;;;;;;;;;;;;;;;24.54;35.10;96601.69;5049668;28;20407;-73
2022/08/12 07:42:51;;;;;;;;;;;;;;;24.73;35.11;96593.47;5042264;28;19966;-73
2022/08/12 07:45:23;;;;;;;;;;;;;;;24.94;34.82;96597.22;5056312;28;20356;-73
2022/08/12 07:47:50;;;;;;;;;;;;;;;25.10;34.87;96594.97;5042238;28;19961;-73
2022/08/12 07:50:18;;;;;;;;;;;;;;;25.09;33.11;96594.19;5047522;28;19965;-73
2022/08/12 07:52:45;;;;;;;;;;;;;;;25.07;34.30;96601.75;5044253;28;19974;-73
2022/08/12 07:55:12;;;;;;;;;;;;;;;25.01;34.18;96600.28;5045246;28;20369;-73
2022/08/12 07:58:10;;;;;;;;;;;;;;;24.96;34.33;96599.63;5048609;28;19970;-74
2022/08/12 08:00:39;;;;;;;;;;;;;;;25.07;34.12;96595.56;4994840;28;19977;-75
2022/08/12 08:03:07;;;;;;;;;;;;;;;25.26;34.06;96592.69;5025974;28;19970;-74
2022/08/12 08:05:38;;;;;;;;;;;;;;;25.41;33.27;96596.84;5046831;28;19984;-73
2022/08/12 08:08:14;;;;;;;;;;;;;;;25.37;33.76;96595.91;5046210;28;20426;-74
2022/08/12 08:10:41;;;;;;;;;;;;;;;25.35;33.36;96593.53;5045031;28;19963;-74
2022/08/12 08:13:07;;;;;;;;;;;;;;;25.51;32.73;96583.16;5046264;28;19961;-74
2022/08/12 08:15:37;;;;;;;;;;;;;;;25.41;32.11;96581.56;5046197;28;19962;-74
2022/08/12 08:18:04;;;;;;;;;;;;;;;25.44;32.67;96590.88;5045246;28;20310;-74
2022/08/12 08:20:32;;;;;;;;;;;;;;;25.61;32.23;96596.28;5041971;28;19963;-74
2022/08/12 08:22:59;;;;;;;;;;;;;;;25.69;32.43;96597.44;5035613;28;19972;-73
2022/08/12 08:25:32;;;;;;;;;;;;;;;25.85;32.50;96603.16;5041364;28;19962;-73
2022/08/12 08:27:58;;;;;;;;;;;;;;;25.95;32.27;96602.09;5061438;28;19968;-74
2022/08/12 08:30:25;;;;;;;;;;;;;;;25.93;31.05;96594.34;5049269;28;19958;-73
2022/08/12 08:32:51;;;;;;;;;;;;;;;25.89;31.84;96588.81;5044491;28;19961;-73
2022/08/12 08:35:17;;;;;;;;;;;;;;;25.92;30.55;96588.19;5043287;28;19954;-73
2022/08/12 08:37:45;;;;;;;;;;;;;;;26.07;31.34;96586.94;5045087;28;20302;-73
2022/08/12 08:42:56;;;;;;;;;;;;;;;26.23;32.06;96584.59;5043406;28;20417;-73
2022/08/12 08:45:22;;;;;;;;;;;;;;;26.31;31.38;96586.50;5044241;28;20001;-73
2022/08/12 08:47:50;;;;;;;;;;;;;;;26.25;30.72;96590.44;5045082;28;19957;-73
2022/08/12 08:50:16;;;;;;;;;;;;;;;26.30;31.30;96587.59;5042565;28;19955;-73
2022/08/12 08:52:43;;;;;;;;;;;;;;;26.09;29.48;96581.25;5040955;28;19963;-73
2022/08/12 08:55:09;;;;;;;;;;;;;;;26.15;31.21;96584.59;5046845;28;20419;-73
2022/08/12 08:57:35;;;;;;;;;;;;;;;26.21;30.06;96586.03;5049223;28;20403;-74
2022/08/12 09:00:02;;;;;;;;;;;;;;;26.24;30.00;96583.47;5042254;28;20013;-73
2022/08/12 09:02:29;;;;;;;;;;;;;;;26.32;30.96;96580.00;5041724;28;20424;-74
2022/08/12 09:04:55;;;;;;;;;;;;;;;26.29;30.32;96587.91;5048027;28;19960;-73
2022/08/12 09:07:21;;;;;;;;;;;;;;;26.27;28.57;96582.03;5048697;28;19961;-73
2022/08/12 09:09:47;;;;;;;;;;;;;;;26.27;29.26;96579.34;5040978;28;19956;-73
2022/08/12 09:14:57;;;;;;;;;;;;;;;26.49;28.57;96570.34;5044767;28;19965;-73
2022/08/12 09:17:24;;;;;;;;;;;;;;;26.52;27.84;96565.13;5039815;28;20321;-73
2022/08/12 09:19:50;;;;;;;;;;;;;;;26.47;27.96;96586.00;5047985;28;19969;-73
2022/08/12 09:22:16;;;;;;;;;;;;;;;26.39;28.27;96576.81;5047400;28;19976;-73
2022/08/12 09:24:42;;;;;;;;;;;;;;;26.15;27.78;96577.31;5046718;28;19958;-73
2022/08/12 09:27:09;;;;;;;;;;;;;;;25.98;27.96;96577.31;5041912;28;19956;-74
2022/08/12 09:29:35;;;;;;;;;;;;;;;26.03;29.16;96575.25;5041431;28;19994;-73
2022/08/12 09:32:05;;;;;;;;;;;;;;;26.19;29.40;96567.50;5043931;28;20439;-73
2022/08/12 09:34:32;;;;;;;;;;;;;;;26.11;28.26;96574.47;5044607;28;19962;-74
2022/08/12 09:36:58;;;;;;;;;;;;;;;26.22;29.04;96569.56;5039759;28;19968;-74
2022/08/12 09:39:23;;;;;;;;;;;;;;;26.25;28.50;96568.16;5045327;28;20304;-74
2022/08/12 09:45:19;;;;;;;;;;;;;;;26.17;28.21;96560.88;5044458;28;20006;-73
2022/08/12 09:47:21;;;;;;;;;;;;;;;26.17;29.13;96555.50;5045095;28;19962;-74
2022/08/12 09:49:48;;;;;;;;;;;;;;;26.12;28.94;96557.25;5046632;28;19972;-73
2022/08/12 09:52:14;;;;;;;;;;;;;;;26.23;29.58;96546.19;5038412;28;19959;-74
2022/08/12 09:54:40;;;;;;;;;;;;;;;26.17;28.61;96539.38;5048969;28;19966;-73
2022/08/12 09:57:10;;;;;;;;;;;;;;;26.29;29.30;96537.63;5048109;28;19959;-73
2022/08/12 09:59:36;;;;;;;;;;;;;;;26.41;28.50;96538.88;5042515;28;19970;-73
2022/08/12 10:02:03;;;;;;;;;;;;;;;26.38;28.39;96548.38;5043899;28;19965;-73
2022/08/12 10:04:28;;;;;;;;;;;;;;;26.31;29.42;96548.03;5040803;28;20458;-73
2022/08/12 10:06:54;;;;;;;;;;;;;;;26.46;29.10;96539.50;5048593;28;19962;-73
2022/08/12 10:09:20;;;;;;;;;;;;;;;26.58;28.94;96536.19;5047899;28;19962;-74
2022/08/12 10:14:30;;;;;;;;;;;;;;;26.54;28.03;96527.13;5042349;28;19966;-73
2022/08/12 10:16:56;;;;;;;;;;;;;;;26.57;28.90;96526.56;5041660;28;20479;-75
2022/08/12 10:19:23;;;;;;;;;;;;;;;26.62;28.70;96530.97;5041127;28;19969;-73
2022/08/12 10:21:50;;;;;;;;;;;;;;;26.65;27.57;96525.75;5044826;28;19955;-73
2022/08/12 10:24:22;;;;;;;;;;;;;;;26.71;28.33;96516.41;5049966;28;19962;-74
2022/08/12 10:29:38;;;;;;;;;;;;;;;26.75;28.65;96511.16;5039956;28;19978;-74
2022/08/12 10:32:05;;;;;;;;;;;;;;;27.00;28.45;96506.00;5038377;28;19957;-73
2022/08/12 10:34:31;;;;;;;;;;;;;;;27.23;27.36;96501.19;5046569;28;19969;-73
2022/08/12 10:36:58;;;;;;;;;;;;;;;27.51;28.16;96504.22;5042011;28;19964;-73
2022/08/12 10:39:25;;;;;;;;;;;;;;;27.60;26.78;96507.63;5042069;28;19966;-73
2022/08/12 10:44:35;;;;;;;;;;;;;;;27.65;26.89;96496.66;5042372;28;19964;-73
2022/08/12 10:47:03;;;;;;;;;;;;;;;27.71;25.97;96505.34;5043265;28;19955;-73
2022/08/12 10:49:33;;;;;;;;;;;;;;;27.47;25.89;96514.06;5047609;28;19964;-73
2022/08/12 10:52:01;;;;;;;;;;;;;;;27.45;27.00;96508.22;5045492;28;20624;-73
2022/08/12 10:54:27;;;;;;;;;;;;;;;27.54;26.80;96498.94;5046221;28;19965;-73
2022/08/12 10:56:53;;;;;;;;;;;;;;;27.46;26.78;96499.78;5043837;28;19959;-74
2022/08/12 10:59:22;;;;;;;;;;;;;;;27.29;26.89;96491.81;5048465;28;19966;-73
2022/08/12 11:01:48;;;;;;;;;;;;;;;27.15;27.04;96494.69;5052070;28;19969;-73
2022/08/12 11:04:14;;;;;;;;;;;;;;;27.24;26.46;96487.41;5036546;28;19968;-73
2022/08/12 11:06:46;;;;;;;;;;;;;;;27.38;25.53;96479.06;5051716;28;20045;-74
2022/08/12 11:09:20;;;;;;;;;;;;;;;27.57;26.06;96475.94;5047996;28;19977;-73
2022/08/12 11:11:47;;;;;;;;;;;;;;;27.68;25.91;96490.63;5041807;28;19961;-74
2022/08/12 11:14:16;;;;;;;;;;;;;;;27.84;25.42;96490.03;5050191;28;19964;-73
2022/08/12 11:16:43;;;;;;;;;;;;;;;27.81;25.72;96475.31;5046993;28;19957;-74
2022/08/12 11:19:09;;;;;;;;;;;;;;;27.93;25.94;96485.41;5050715;28;19968;-73
2022/08/12 11:21:36;;;;;;;;;;;;;;;27.92;24.41;96478.44;5042851;28;20413;-73
2022/08/12 11:24:02;;;;;;;;;;;;;;;27.91;25.54;96485.72;5044880;28;20344;-73
2022/08/12 11:26:28;;;;;;;;;;;;;;;28.02;25.41;96482.66;5050288;28;20420;-73
2022/08/12 11:28:54;;;;;;;;;;;;;;;27.97;24.23;96480.13;5048421;28;19983;-73
2022/08/12 11:31:20;;;;;;;;;;;;;;;27.97;25.56;96478.25;5045365;28;20416;-73
2022/08/12 11:33:48;;;;;;;;;;;;;;;28.03;24.93;96481.50;5046700;28;20368;-73
2022/08/12 11:36:14;;;;;;;;;;;;;;;28.08;25.29;96475.94;5045996;28;19982;-74
2022/08/12 11:38:40;;;;;;;;;;;;;;;28.17;25.37;96478.56;5050172;28;20401;-73
2022/08/12 11:41:06;;;;;;;;;;;;;;;28.38;23.69;96456.94;5046268;28;19959;-73
2022/08/12 11:43:32;;;;;;;;;;;;;;;28.40;24.38;96460.09;5044213;28;19963;-73
2022/08/12 11:45:58;;;;;;;;;;;;;;;28.43;24.42;96471.00;5047075;28;20048;-73
2022/08/12 11:48:24;;;;;;;;;;;;;;;28.48;24.06;96457.28;5047500;28;19954;-73
2022/08/12 11:50:50;;;;;;;;;;;;;;;28.66;24.72;96449.81;5050676;28;19963;-73
2022/08/12 11:53:16;;;;;;;;;;;;;;;28.83;25.00;96459.66;5044883;28;19957;-73
2022/08/12 11:55:42;;;;;;;;;;;;;;;28.80;23.58;96444.09;5044654;28;20334;-73
2022/08/12 11:58:08;;;;;;;;;;;;;;;28.88;22.87;96462.09;5042511;28;20409;-73
2022/08/12 12:00:34;;;;;;;;;;;;;;;29.00;24.41;96458.63;5045970;28;20030;-74
2022/08/12 12:03:00;;;;;;;;;;;;;;;29.18;23.33;96450.34;5045438;28;19971;-74
2022/08/12 12:05:26;;;;;;;;;;;;;;;29.12;21.74;96453.25;5049160;28;19997;-73
2022/08/12 12:07:52;;;;;;;;;;;;;;;28.85;23.05;96459.28;5041381;28;20019;-73
2022/08/12 12:10:19;;;;;;;;;;;;;;;28.78;24.12;96438.25;5045314;28;19968;-74
2022/08/12 12:12:45;;;;;;;;;;;;;;;28.88;23.69;96440.50;5043976;28;19958;-74
2022/08/12 12:15:11;;;;;;;;;;;;;;;29.10;23.89;96433.88;5046833;28;20403;-73
2022/08/12 12:17:38;;;;;;;;;;;;;;;29.27;23.02;96430.19;5046571;28;19964;-74
2022/08/12 12:20:08;;;;;;;;;;;;;;;29.11;22.68;96440.88;5041483;28;19952;-74
2022/08/12 12:22:38;;;;;;;;;;;;;;;29.20;23.62;96435.34;5044424;28;20440;-74
2022/08/12 12:25:05;;;;;;;;;;;;;;;29.24;22.82;96425.44;5043411;28;19956;-74
2022/08/12 12:27:51;;;;;;;;;;;;;;;29.48;23.26;96430.03;5050457;28;19966;-73
2022/08/12 12:30:17;;;;;;;;;;;;;;;29.63;22.33;96431.25;5051491;28;20956;-74
2022/08/12 12:32:43;;;;;;;;;;;;;;;29.54;21.79;96428.66;5047123;28;19967;-73
2022/08/12 12:35:09;;;;;;;;;;;;;;;29.53;22.85;96424.38;5044810;28;19953;-73
2022/08/12 12:37:48;;;;;;;;;;;;;;;29.19;21.70;96425.69;5042931;28;19960;-74
2022/08/12 12:40:14;;;;;;;;;;;;;;;29.25;22.33;96431.63;5044089;28;19970;-74
2022/08/12 12:42:40;;;;;;;;;;;;;;;29.26;22.75;96425.13;5042919;28;19972;-73
2022/08/12 12:45:06;;;;;;;;;;;;;;;29.35;21.84;96420.38;5048267;28;19960;-73
2022/08/12 12:47:32;;;;;;;;;;;;;;;29.41;22.70;96412.81;5043136;28;19968;-73
2022/08/12 12:49:58;;;;;;;;;;;;;;;29.40;22.57;96427.44;5041479;28;19965;-74
2022/08/12 12:52:24;;;;;;;;;;;;;;;29.29;22.18;96422.53;5033728;28;19960;-73
2022/08/12 12:54:54;;;;;;;;;;;;;;;29.14;21.96;96420.50;5050692;28;19955;-74
2022/08/12 12:57:23;;;;;;;;;;;;;;;29.07;22.10;96415.66;5044631;28;20412;-74
2022/08/12 13:00:13;;;;;;;;;;;;;;;29.00;22.29;96423.53;5046316;28;19972;-74
2022/08/12 13:02:39;;;;;;;;;;;;;;;28.87;22.73;96425.47;5045763;28;19963;-74
2022/08/12 13:05:07;;;;;;;;;;;;;;;28.91;22.64;96415.53;5042414;28;19960;-73
2022/08/12 13:07:37;;;;;;;;;;;;;;;28.91;22.64;96412.84;5058953;28;19964;-73
2022/08/12 13:10:03;;;;;;;;;;;;;;;28.82;22.51;96427.59;5042996;28;20329;-74
2022/08/12 13:12:29;;;;;;;;;;;;;;;28.64;22.67;96418.91;5048632;28;19963;-73
2022/08/12 13:14:56;;;;;;;;;;;;;;;28.67;23.16;96410.16;5043455;28;19973;-74
2022/08/12 13:17:22;;;;;;;;;;;;;;;28.91;23.43;96404.72;5043297;28;19960;-73
2022/08/12 13:19:48;;;;;;;;;;;;;;;28.98;22.35;96406.88;5044950;28;19966;-73
2022/08/12 13:22:19;;;;;;;;;;;;;;;29.02;22.57;96412.38;5038387;28;20375;-74
2022/08/12 13:24:46;;;;;;;;;;;;;;;28.83;22.50;96405.66;5038180;28;20417;-73
2022/08/12 13:27:12;;;;;;;;;;;;;;;28.56;22.77;96398.19;5038036;28;20430;-74
2022/08/12 13:29:38;;;;;;;;;;;;;;;28.61;23.30;96389.91;5046925;28;19994;-73
2022/08/12 13:32:04;;;;;;;;;;;;;;;28.89;23.56;96395.41;5046567;28;19960;-73
2022/08/12 13:34:31;;;;;;;;;;;;;;;28.90;23.13;96400.47;5040035;28;19986;-73
2022/08/12 13:36:57;;;;;;;;;;;;;;;28.54;23.61;96404.72;5046360;28;19961;-74
2022/08/12 13:39:23;;;;;;;;;;;;;;;28.22;23.67;96411.69;5045155;28;20041;-76
2022/08/12 13:41:50;;;;;;;;;;;;;;;28.00;23.97;96407.50;5036330;28;20394;-73
2022/08/12 13:44:16;;;;;;;;;;;;;;;27.69;24.38;96407.88;5058104;28;19978;-73
2022/08/12 13:46:42;;;;;;;;;;;;;;;27.38;24.85;96410.97;5040414;28;19957;-73
2022/08/12 13:49:12;;;;;;;;;;;;;;;27.16;24.71;96404.75;5041484;28;19959;-73
2022/08/12 13:51:38;;;;;;;;;;;;;;;27.04;25.54;96412.72;5044728;28;19952;-73
2022/08/12 13:54:04;;;;;;;;;;;;;;;27.22;24.99;96403.47;5042909;28;19962;-73
2022/08/12 13:56:34;;;;;;;;;;;;;;;27.49;24.61;96415.66;5042865;28;19957;-73
2022/08/12 13:59:00;;;;;;;;;;;;;;;27.84;24.76;96409.19;5044329;28;20392;-74
2022/08/12 14:01:27;;;;;;;;;;;;;;;27.99;24.60;96395.16;5044074;28;20438;-73
2022/08/12 14:03:53;;;;;;;;;;;;;;;28.23;24.62;96391.72;5049815;28;19976;-74
2022/08/12 14:06:19;;;;;;;;;;;;;;;28.41;24.16;96388.81;5046002;28;20019;-74
2022/08/12 14:08:47;;;;;;;;;;;;;;;28.54;24.51;96390.47;5038613;28;19963;-73
2022/08/12 14:11:13;;;;;;;;;;;;;;;28.61;24.50;96395.28;5044305;28;19957;-74
2022/08/12 14:13:40;;;;;;;;;;;;;;;28.65;24.07;96386.19;5049596;28;19957;-73
2022/08/12 14:16:09;;;;;;;;;;;;;;;28.74;23.82;96383.38;5048532;28;19952;-73
2022/08/12 14:18:38;;;;;;;;;;;;;;;28.61;24.09;96384.50;5039599;28;19952;-73
2022/08/12 14:21:11;;;;;;;;;;;;;;;28.54;24.53;96390.47;5039702;28;20033;-74
2022/08/12 14:23:38;;;;;;;;;;;;;;;28.44;23.96;96378.16;5027222;28;19985;-73
2022/08/12 14:26:05;;;;;;;;;;;;;;;28.36;24.31;96384.44;5039010;28;19959;-73
2022/08/12 14:28:33;;;;;;;;;;;;;;;28.28;24.40;96380.69;5044912;28;19984;-73
2022/08/12 14:31:05;;;;;;;;;;;;;;;28.36;24.46;96381.75;5045738;28;19976;-74
2022/08/12 14:33:40;;;;;;;;;;;;;;;28.45;24.17;96381.63;5044420;28;19960;-73